sensor_id;sensor_type;location;lat;lon;timestamp;pressure;altitude;pressure_sealevel;temperature;humidity
70127;BME280;57491;42.694;23.314;2024-03-22T00:00:08;95177.84;;;10.49;41.36
70127;BME280;57491;42.694;23.314;2024-03-22T00:05:19;95172.66;;;10.49;42.36
70127;BME280;57491;42.694;23.314;2024-03-22T00:07:47;95170.81;;;10.35;41.42
70127;BME280;57491;42.694;23.314;2024-03-22T00:10:15;95182.53;;;10.31;39.81
70127;BME280;57491;42.694;23.314;2024-03-22T00:12:41;95175.25;;;10.26;41.16
70127;BME280;57491;42.694;23.314;2024-03-22T00:15:09;95179.06;;;10.15;40.88
70127;BME280;57491;42.694;23.314;2024-03-22T00:17:36;95177.13;;;10.09;40.13
70127;BME280;57491;42.694;23.314;2024-03-22T00:20:04;95173.91;;;10.07;41.39
70127;BME280;57491;42.694;23.314;2024-03-22T00:22:30;95184.00;;;10.02;42.92
70127;BME280;57491;42.694;23.314;2024-03-22T00:24:58;95176.22;;;10.02;41.77
70127;BME280;57491;42.694;23.314;2024-03-22T00:27:24;95182.22;;;10.03;42.51
70127;BME280;57491;42.694;23.314;2024-03-22T00:29:51;95171.19;;;10.01;42.17
70127;BME280;57491;42.694;23.314;2024-03-22T00:32:19;95174.94;;;9.98;42.29
70127;BME280;57491;42.694;23.314;2024-03-22T00:34:46;95173.69;;;9.94;41.59
70127;BME280;57491;42.694;23.314;2024-03-22T00:37:12;95141.16;;;9.75;42.24
70127;BME280;57491;42.694;23.314;2024-03-22T00:39:40;95183.66;;;10.05;43.40
70127;BME280;57491;42.694;23.314;2024-03-22T00:42:07;95187.56;;;10.01;41.89
70127;BME280;57491;42.694;23.314;2024-03-22T00:44:34;95185.66;;;9.95;42.16
70127;BME280;57491;42.694;23.314;2024-03-22T00:47:00;95182.31;;;9.86;42.62
70127;BME280;57491;42.694;23.314;2024-03-22T00:49:30;95183.34;;;9.77;43.14
70127;BME280;57491;42.694;23.314;2024-03-22T00:51:56;95165.72;;;9.65;42.03
70127;BME280;57491;42.694;23.314;2024-03-22T00:54:23;95172.06;;;9.62;41.45
70127;BME280;57491;42.694;23.314;2024-03-22T00:56:50;95183.59;;;9.60;42.47
70127;BME280;57491;42.694;23.314;2024-03-22T00:59:17;95184.31;;;9.46;42.96
70127;BME280;57491;42.694;23.314;2024-03-22T01:01:43;95177.25;;;9.31;42.15
70127;BME280;57491;42.694;23.314;2024-03-22T01:04:11;95185.38;;;9.20;43.05
70127;BME280;57491;42.694;23.314;2024-03-22T01:06:38;95167.63;;;8.93;42.58
70127;BME280;57491;42.694;23.314;2024-03-22T01:09:06;95181.06;;;8.96;42.48
70127;BME280;57491;42.694;23.314;2024-03-22T01:11:32;95182.56;;;8.91;44.85
70127;BME280;57491;42.694;23.314;2024-03-22T01:13:59;95160.72;;;8.77;42.76
70127;BME280;57491;42.694;23.314;2024-03-22T01:16:26;95177.56;;;8.81;44.66
70127;BME280;57491;42.694;23.314;2024-03-22T01:18:53;95185.78;;;8.93;45.60
70127;BME280;57491;42.694;23.314;2024-03-22T01:21:19;95192.59;;;8.94;45.82
70127;BME280;57491;42.694;23.314;2024-03-22T01:23:54;95188.03;;;9.04;47.78
70127;BME280;57491;42.694;23.314;2024-03-22T01:26:21;95195.16;;;9.02;48.56
70127;BME280;57491;42.694;23.314;2024-03-22T01:28:48;95192.09;;;8.99;46.65
70127;BME280;57491;42.694;23.314;2024-03-22T01:31:14;95195.19;;;8.94;43.44
70127;BME280;57491;42.694;23.314;2024-03-22T01:33:42;95197.13;;;8.92;46.75
70127;BME280;57491;42.694;23.314;2024-03-22T01:36:08;95184.00;;;8.93;46.29
70127;BME280;57491;42.694;23.314;2024-03-22T01:38:35;95185.63;;;8.94;47.06
70127;BME280;57491;42.694;23.314;2024-03-22T01:41:03;95187.91;;;8.89;43.56
70127;BME280;57491;42.694;23.314;2024-03-22T01:43:30;95191.59;;;9.03;47.14
70127;BME280;57491;42.694;23.314;2024-03-22T01:45:56;95187.53;;;9.01;47.71
70127;BME280;57491;42.694;23.314;2024-03-22T01:48:24;95189.34;;;9.00;46.29
70127;BME280;57491;42.694;23.314;2024-03-22T01:50:51;95183.19;;;8.93;43.58
70127;BME280;57491;42.694;23.314;2024-03-22T01:53:18;95182.06;;;8.95;46.24
70127;BME280;57491;42.694;23.314;2024-03-22T01:55:45;95184.19;;;8.84;43.23
70127;BME280;57491;42.694;23.314;2024-03-22T01:58:14;95181.13;;;8.80;43.21
70127;BME280;57491;42.694;23.314;2024-03-22T02:00:40;95170.59;;;8.74;45.00
70127;BME280;57491;42.694;23.314;2024-03-22T02:03:08;95180.81;;;8.75;44.00
70127;BME280;57491;42.694;23.314;2024-03-22T02:05:34;95181.63;;;8.68;45.51
70127;BME280;57491;42.694;23.314;2024-03-22T02:08:02;95188.75;;;8.74;45.31
70127;BME280;57491;42.694;23.314;2024-03-22T02:10:28;95167.06;;;8.59;44.57
70127;BME280;57491;42.694;23.314;2024-03-22T02:12:56;95177.25;;;8.60;46.69
70127;BME280;57491;42.694;23.314;2024-03-22T02:15:24;95177.91;;;8.62;46.09
70127;BME280;57491;42.694;23.314;2024-03-22T02:17:51;95181.78;;;8.66;46.43
70127;BME280;57491;42.694;23.314;2024-03-22T02:20:17;95179.38;;;8.57;46.94
70127;BME280;57491;42.694;23.314;2024-03-22T02:22:45;95191.66;;;8.71;48.01
70127;BME280;57491;42.694;23.314;2024-03-22T02:25:13;95177.56;;;8.65;46.74
70127;BME280;57491;42.694;23.314;2024-03-22T02:27:40;95182.59;;;8.67;46.67
70127;BME280;57491;42.694;23.314;2024-03-22T02:30:08;95200.56;;;8.76;46.36
70127;BME280;57491;42.694;23.314;2024-03-22T02:32:35;95195.06;;;8.71;45.90
70127;BME280;57491;42.694;23.314;2024-03-22T02:35:03;95197.31;;;8.74;44.44
70127;BME280;57491;42.694;23.314;2024-03-22T02:37:30;95196.53;;;8.66;45.73
70127;BME280;57491;42.694;23.314;2024-03-22T02:39:57;95193.63;;;8.61;46.84
70127;BME280;57491;42.694;23.314;2024-03-22T02:42:26;95204.78;;;8.61;46.90
70127;BME280;57491;42.694;23.314;2024-03-22T02:44:53;95200.75;;;8.67;48.06
70127;BME280;57491;42.694;23.314;2024-03-22T02:47:20;95204.16;;;8.67;46.78
70127;BME280;57491;42.694;23.314;2024-03-22T02:49:46;95202.69;;;8.65;48.21
70127;BME280;57491;42.694;23.314;2024-03-22T02:52:13;95213.22;;;8.71;46.75
70127;BME280;57491;42.694;23.314;2024-03-22T02:54:41;95200.41;;;8.70;46.15
70127;BME280;57491;42.694;23.314;2024-03-22T02:57:08;95214.38;;;8.69;47.54
70127;BME280;57491;42.694;23.314;2024-03-22T02:59:36;95205.59;;;8.62;48.02
70127;BME280;57491;42.694;23.314;2024-03-22T03:02:03;95223.59;;;8.71;48.51
70127;BME280;57491;42.694;23.314;2024-03-22T03:04:30;95224.41;;;8.64;48.43
70127;BME280;57491;42.694;23.314;2024-03-22T03:06:57;95223.44;;;8.57;47.46
70127;BME280;57491;42.694;23.314;2024-03-22T03:09:23;95228.44;;;8.66;47.38
70127;BME280;57491;42.694;23.314;2024-03-22T03:11:51;95217.09;;;8.51;47.01
70127;BME280;57491;42.694;23.314;2024-03-22T03:14:17;95220.34;;;8.53;47.30
70127;BME280;57491;42.694;23.314;2024-03-22T03:16:46;95232.03;;;8.49;44.31
70127;BME280;57491;42.694;23.314;2024-03-22T03:19:12;95235.41;;;8.33;45.09
70127;BME280;57491;42.694;23.314;2024-03-22T03:21:39;95236.81;;;8.20;45.81
70127;BME280;57491;42.694;23.314;2024-03-22T03:24:06;95236.81;;;8.03;46.76
70127;BME280;57491;42.694;23.314;2024-03-22T03:26:35;95239.38;;;7.95;46.73
70127;BME280;57491;42.694;23.314;2024-03-22T03:29:01;95245.84;;;7.83;47.76
70127;BME280;57491;42.694;23.314;2024-03-22T03:31:28;95240.91;;;7.64;46.92
70127;BME280;57491;42.694;23.314;2024-03-22T03:33:56;95250.78;;;7.60;46.88
70127;BME280;57491;42.694;23.314;2024-03-22T03:36:23;95244.66;;;7.36;46.86
70127;BME280;57491;42.694;23.314;2024-03-22T03:38:50;95246.19;;;7.21;47.32
70127;BME280;57491;42.694;23.314;2024-03-22T03:41:17;95243.44;;;7.14;47.99
70127;BME280;57491;42.694;23.314;2024-03-22T03:43:43;95252.56;;;7.00;47.75
70127;BME280;57491;42.694;23.314;2024-03-22T03:46:10;95239.56;;;6.84;47.72
70127;BME280;57491;42.694;23.314;2024-03-22T03:48:36;95256.47;;;6.79;47.69
70127;BME280;57491;42.694;23.314;2024-03-22T03:51:06;95259.50;;;6.74;48.17
70127;BME280;57491;42.694;23.314;2024-03-22T03:53:32;95261.88;;;6.67;49.33
70127;BME280;57491;42.694;23.314;2024-03-22T03:55:59;95261.22;;;6.65;48.17
70127;BME280;57491;42.694;23.314;2024-03-22T03:58:25;95262.50;;;6.61;48.58
70127;BME280;57491;42.694;23.314;2024-03-22T04:00:53;95264.03;;;6.54;48.26
70127;BME280;57491;42.694;23.314;2024-03-22T04:03:19;95266.97;;;6.59;47.93
70127;BME280;57491;42.694;23.314;2024-03-22T04:05:46;95273.03;;;6.50;48.19
70127;BME280;57491;42.694;23.314;2024-03-22T04:08:14;95277.31;;;6.59;50.25
70127;BME280;57491;42.694;23.314;2024-03-22T04:10:41;95270.81;;;6.73;50.02
70127;BME280;57491;42.694;23.314;2024-03-22T04:13:07;95270.72;;;6.83;48.34
70127;BME280;57491;42.694;23.314;2024-03-22T04:15:35;95277.69;;;6.90;49.10
70127;BME280;57491;42.694;23.314;2024-03-22T04:18:01;95274.03;;;6.93;50.61
70127;BME280;57491;42.694;23.314;2024-03-22T04:20:28;95269.22;;;6.98;50.35
70127;BME280;57491;42.694;23.314;2024-03-22T04:22:55;95269.53;;;7.03;48.90
70127;BME280;57491;42.694;23.314;2024-03-22T04:25:23;95273.78;;;7.12;49.64
70127;BME280;57491;42.694;23.314;2024-03-22T04:27:50;95280.81;;;7.20;50.60
70127;BME280;57491;42.694;23.314;2024-03-22T04:30:17;95285.88;;;7.29;51.26
70127;BME280;57491;42.694;23.314;2024-03-22T04:32:45;95269.19;;;7.24;50.46
70127;BME280;57491;42.694;23.314;2024-03-22T04:35:13;95291.22;;;7.36;50.50
70127;BME280;57491;42.694;23.314;2024-03-22T04:37:39;95289.94;;;7.40;50.25
70127;BME280;57491;42.694;23.314;2024-03-22T04:40:07;95300.41;;;7.56;50.02
70127;BME280;57491;42.694;23.314;2024-03-22T04:42:37;95289.22;;;7.55;49.92
70127;BME280;57491;42.694;23.314;2024-03-22T04:45:04;95299.63;;;7.72;49.77
70127;BME280;57491;42.694;23.314;2024-03-22T04:47:30;95293.34;;;7.74;49.56
70127;BME280;57491;42.694;23.314;2024-03-22T04:49:58;95295.97;;;7.82;49.16
70127;BME280;57491;42.694;23.314;2024-03-22T04:52:24;95294.53;;;7.88;49.74
70127;BME280;57491;42.694;23.314;2024-03-22T04:54:51;95309.13;;;7.97;50.73
70127;BME280;57491;42.694;23.314;2024-03-22T04:57:17;95308.16;;;8.06;50.71
70127;BME280;57491;42.694;23.314;2024-03-22T04:59:46;95302.69;;;8.17;49.55
70127;BME280;57491;42.694;23.314;2024-03-22T05:02:12;95306.78;;;8.28;48.62
70127;BME280;57491;42.694;23.314;2024-03-22T05:04:40;95313.94;;;8.34;48.54
70127;BME280;57491;42.694;23.314;2024-03-22T05:07:06;95304.25;;;8.44;46.85
70127;BME280;57491;42.694;23.314;2024-03-22T05:09:33;95306.69;;;8.54;46.07
70127;BME280;57491;42.694;23.314;2024-03-22T05:11:59;95310.91;;;8.63;46.97
70127;BME280;57491;42.694;23.314;2024-03-22T05:14:27;95307.97;;;8.74;45.60
70127;BME280;57491;42.694;23.314;2024-03-22T05:16:55;95312.53;;;8.64;45.38
70127;BME280;57491;42.694;23.314;2024-03-22T05:19:22;95317.88;;;8.54;45.47
70127;BME280;57491;42.694;23.314;2024-03-22T05:21:49;95318.53;;;8.64;46.64
70127;BME280;57491;42.694;23.314;2024-03-22T05:24:17;95324.84;;;8.78;48.08
70127;BME280;57491;42.694;23.314;2024-03-22T05:26:43;95296.97;;;8.72;45.33
70127;BME280;57491;42.694;23.314;2024-03-22T05:29:10;95328.56;;;9.00;45.49
70127;BME280;57491;42.694;23.314;2024-03-22T05:31:47;95327.41;;;9.10;44.51
70127;BME280;57491;42.694;23.314;2024-03-22T05:34:19;95335.19;;;9.26;47.61
70127;BME280;57491;42.694;23.314;2024-03-22T05:36:45;95330.47;;;9.38;47.69
70127;BME280;57491;42.694;23.314;2024-03-22T05:39:12;95328.84;;;9.45;45.51
70127;BME280;57491;42.694;23.314;2024-03-22T05:41:39;95334.22;;;9.35;44.47
70127;BME280;57491;42.694;23.314;2024-03-22T05:44:08;95333.53;;;9.41;45.77
70127;BME280;57491;42.694;23.314;2024-03-22T05:46:34;95345.19;;;9.62;44.40
70127;BME280;57491;42.694;23.314;2024-03-22T05:49:01;95338.03;;;9.64;43.57
70127;BME280;57491;42.694;23.314;2024-03-22T05:51:30;95341.91;;;9.76;43.85
70127;BME280;57491;42.694;23.314;2024-03-22T05:53:56;95343.50;;;9.85;43.92
70127;BME280;57491;42.694;23.314;2024-03-22T05:56:23;95349.31;;;9.87;43.47
70127;BME280;57491;42.694;23.314;2024-03-22T05:58:50;95352.69;;;9.96;44.00
70127;BME280;57491;42.694;23.314;2024-03-22T06:01:17;95348.59;;;10.17;43.12
70127;BME280;57491;42.694;23.314;2024-03-22T06:03:43;95345.56;;;10.37;42.36
70127;BME280;57491;42.694;23.314;2024-03-22T06:06:10;95342.06;;;10.52;42.63
70127;BME280;57491;42.694;23.314;2024-03-22T06:08:39;95347.34;;;10.67;42.24
70127;BME280;57491;42.694;23.314;2024-03-22T06:11:09;95335.41;;;10.95;40.72
70127;BME280;57491;42.694;23.314;2024-03-22T06:13:35;95338.56;;;11.28;40.33
70127;BME280;57491;42.694;23.314;2024-03-22T06:16:04;95335.47;;;11.47;40.59
70127;BME280;57491;42.694;23.314;2024-03-22T06:18:30;95332.59;;;11.57;39.60
70127;BME280;57491;42.694;23.314;2024-03-22T06:20:57;95340.63;;;11.85;39.19
70127;BME280;57491;42.694;23.314;2024-03-22T06:23:24;95333.97;;;11.97;38.99
70127;BME280;57491;42.694;23.314;2024-03-22T06:25:53;95336.66;;;12.03;37.38
70127;BME280;57491;42.694;23.314;2024-03-22T06:28:19;95339.38;;;12.10;38.27
70127;BME280;57491;42.694;23.314;2024-03-22T06:30:46;95343.81;;;12.31;37.38
70127;BME280;57491;42.694;23.314;2024-03-22T06:33:13;95342.31;;;12.58;36.06
70127;BME280;57491;42.694;23.314;2024-03-22T06:35:41;95323.31;;;12.64;35.88
70127;BME280;57491;42.694;23.314;2024-03-22T06:38:07;95342.03;;;12.88;34.86
70127;BME280;57491;42.694;23.314;2024-03-22T06:40:34;95351.59;;;12.81;35.90
70127;BME280;57491;42.694;23.314;2024-03-22T06:43:02;95347.91;;;12.76;35.22
70127;BME280;57491;42.694;23.314;2024-03-22T06:45:30;95344.84;;;12.87;35.29
70127;BME280;57491;42.694;23.314;2024-03-22T06:47:56;95346.88;;;12.91;35.25
70127;BME280;57491;42.694;23.314;2024-03-22T06:50:23;95354.22;;;13.24;35.13
70127;BME280;57491;42.694;23.314;2024-03-22T06:52:50;95361.16;;;13.59;34.22
70127;BME280;57491;42.694;23.314;2024-03-22T06:55:19;95365.81;;;13.70;34.43
70127;BME280;57491;42.694;23.314;2024-03-22T06:57:46;95362.63;;;13.68;33.65
70127;BME280;57491;42.694;23.314;2024-03-22T07:00:16;95364.44;;;13.74;33.90
70127;BME280;57491;42.694;23.314;2024-03-22T07:02:43;95374.63;;;13.91;33.73
70127;BME280;57491;42.694;23.314;2024-03-22T07:05:11;95368.13;;;13.80;33.80
70127;BME280;57491;42.694;23.314;2024-03-22T07:07:37;95370.84;;;14.00;33.24
70127;BME280;57491;42.694;23.314;2024-03-22T07:10:05;95375.53;;;14.11;33.84
70127;BME280;57491;42.694;23.314;2024-03-22T07:12:32;95371.47;;;14.36;33.28
70127;BME280;57491;42.694;23.314;2024-03-22T07:14:59;95368.47;;;14.46;32.65
70127;BME280;57491;42.694;23.314;2024-03-22T07:17:27;95359.50;;;14.61;32.81
70127;BME280;57491;42.694;23.314;2024-03-22T07:19:55;95358.38;;;14.97;31.58
70127;BME280;57491;42.694;23.314;2024-03-22T07:22:22;95373.31;;;15.16;32.36
70127;BME280;57491;42.694;23.314;2024-03-22T07:24:49;95367.09;;;15.43;31.62
70127;BME280;57491;42.694;23.314;2024-03-22T07:27:17;95361.41;;;15.27;31.30
70127;BME280;57491;42.694;23.314;2024-03-22T07:29:44;95369.91;;;15.35;30.82
70127;BME280;57491;42.694;23.314;2024-03-22T07:32:11;95367.94;;;15.57;30.88
70127;BME280;57491;42.694;23.314;2024-03-22T07:34:40;95367.09;;;15.83;30.50
70127;BME280;57491;42.694;23.314;2024-03-22T07:37:06;95361.22;;;16.00;30.42
70127;BME280;57491;42.694;23.314;2024-03-22T07:39:33;95363.56;;;16.28;29.53
70127;BME280;57491;42.694;23.314;2024-03-22T07:41:59;95364.94;;;16.37;29.54
70127;BME280;57491;42.694;23.314;2024-03-22T07:44:28;95368.09;;;16.52;28.52
70127;BME280;57491;42.694;23.314;2024-03-22T07:46:55;95358.03;;;16.49;28.86
70127;BME280;57491;42.694;23.314;2024-03-22T07:49:22;95336.44;;;16.47;28.38
70127;BME280;57491;42.694;23.314;2024-03-22T07:51:50;95369.03;;;16.78;28.22
70127;BME280;57491;42.694;23.314;2024-03-22T07:54:18;95356.91;;;16.83;27.93
70127;BME280;57491;42.694;23.314;2024-03-22T07:56:45;95364.28;;;17.00;28.16
70127;BME280;57491;42.694;23.314;2024-03-22T07:59:12;95361.94;;;17.16;27.79
70127;BME280;57491;42.694;23.314;2024-03-22T08:01:38;95365.19;;;17.43;27.56
70127;BME280;57491;42.694;23.314;2024-03-22T08:04:06;95377.78;;;17.66;27.09
70127;BME280;57491;42.694;23.314;2024-03-22T08:06:32;95366.28;;;17.85;26.90
70127;BME280;57491;42.694;23.314;2024-03-22T08:09:01;95371.94;;;18.07;27.26
70127;BME280;57491;42.694;23.314;2024-03-22T08:11:29;95370.94;;;18.26;26.49
70127;BME280;57491;42.694;23.314;2024-03-22T08:13:57;95357.56;;;18.27;26.28
70127;BME280;57491;42.694;23.314;2024-03-22T08:16:28;95366.84;;;18.48;25.83
70127;BME280;57491;42.694;23.314;2024-03-22T08:18:55;95351.34;;;18.40;25.82
70127;BME280;57491;42.694;23.314;2024-03-22T08:21:22;95360.19;;;18.46;26.21
70127;BME280;57491;42.694;23.314;2024-03-22T08:23:49;95335.03;;;18.50;25.69
70127;BME280;57491;42.694;23.314;2024-03-22T08:26:17;95367.50;;;18.80;25.10
70127;BME280;57491;42.694;23.314;2024-03-22T08:28:45;95361.06;;;18.76;25.61
70127;BME280;57491;42.694;23.314;2024-03-22T08:31:12;95320.31;;;18.06;25.69
70127;BME280;57491;42.694;23.314;2024-03-22T08:33:39;95356.25;;;18.18;25.99
70127;BME280;57491;42.694;23.314;2024-03-22T08:36:05;95362.78;;;17.91;25.96
70127;BME280;57491;42.694;23.314;2024-03-22T08:38:33;95356.00;;;17.27;26.77
70127;BME280;57491;42.694;23.314;2024-03-22T08:40:59;95348.56;;;17.24;26.96
70127;BME280;57491;42.694;23.314;2024-03-22T08:43:28;95342.38;;;17.68;26.81
70127;BME280;57491;42.694;23.314;2024-03-22T08:45:55;95353.31;;;18.45;26.44
70127;BME280;57491;42.694;23.314;2024-03-22T08:48:23;95355.59;;;18.78;26.40
70127;BME280;57491;42.694;23.314;2024-03-22T08:50:49;95357.00;;;19.33;25.29
70127;BME280;57491;42.694;23.314;2024-03-22T08:53:17;95358.56;;;19.64;24.53
70127;BME280;57491;42.694;23.314;2024-03-22T08:55:46;95352.88;;;19.67;24.16
70127;BME280;57491;42.694;23.314;2024-03-22T08:58:14;95354.81;;;20.07;23.79
70127;BME280;57491;42.694;23.314;2024-03-22T09:00:43;95355.81;;;20.40;23.97
70127;BME280;57491;42.694;23.314;2024-03-22T09:03:10;95349.22;;;20.66;23.27
70127;BME280;57491;42.694;23.314;2024-03-22T09:05:37;95351.31;;;20.92;22.89
70127;BME280;57491;42.694;23.314;2024-03-22T09:08:04;95346.94;;;20.98;22.56
70127;BME280;57491;42.694;23.314;2024-03-22T09:10:31;95342.50;;;21.04;22.61
70127;BME280;57491;42.694;23.314;2024-03-22T09:12:58;95344.81;;;21.12;22.35
70127;BME280;57491;42.694;23.314;2024-03-22T09:15:24;95337.97;;;21.61;21.92
70127;BME280;57491;42.694;23.314;2024-03-22T09:17:54;95334.53;;;21.60;22.34
70127;BME280;57491;42.694;23.314;2024-03-22T09:20:20;95334.25;;;22.12;22.50
70127;BME280;57491;42.694;23.314;2024-03-22T09:22:49;95330.47;;;22.46;21.64
70127;BME280;57491;42.694;23.314;2024-03-22T09:25:15;95333.28;;;22.61;20.26
70127;BME280;57491;42.694;23.314;2024-03-22T09:27:42;95330.59;;;23.00;20.22
70127;BME280;57491;42.694;23.314;2024-03-22T09:30:10;95321.97;;;22.44;20.79
70127;BME280;57491;42.694;23.314;2024-03-22T09:32:37;95336.31;;;22.27;21.13
70127;BME280;57491;42.694;23.314;2024-03-22T09:35:06;95332.31;;;22.24;20.86
70127;BME280;57491;42.694;23.314;2024-03-22T09:37:34;95332.50;;;21.84;21.40
70127;BME280;57491;42.694;23.314;2024-03-22T09:40:00;95323.66;;;22.12;20.69
70127;BME280;57491;42.694;23.314;2024-03-22T09:42:33;95312.09;;;22.61;21.49
70127;BME280;57491;42.694;23.314;2024-03-22T09:45:08;95322.47;;;23.11;20.84
70127;BME280;57491;42.694;23.314;2024-03-22T09:47:36;95324.47;;;23.26;20.40
70127;BME280;57491;42.694;23.314;2024-03-22T09:50:08;95328.44;;;23.55;19.41
70127;BME280;57491;42.694;23.314;2024-03-22T09:52:38;95315.94;;;23.24;19.70
70127;BME280;57491;42.694;23.314;2024-03-22T09:55:05;95315.47;;;23.00;19.92
70127;BME280;57491;42.694;23.314;2024-03-22T09:57:34;95314.06;;;22.49;20.80
70127;BME280;57491;42.694;23.314;2024-03-22T10:00:02;95314.66;;;22.51;20.71
70127;BME280;57491;42.694;23.314;2024-03-22T10:02:29;95314.09;;;22.71;20.42
70127;BME280;57491;42.694;23.314;2024-03-22T10:04:57;95310.34;;;22.07;20.88
70127;BME280;57491;42.694;23.314;2024-03-22T10:07:26;95308.72;;;22.44;21.11
70127;BME280;57491;42.694;23.314;2024-03-22T10:09:52;95304.94;;;23.10;20.00
70127;BME280;57491;42.694;23.314;2024-03-22T10:12:19;95297.31;;;23.19;19.77
70127;BME280;57491;42.694;23.314;2024-03-22T10:14:46;95292.69;;;23.63;19.87
70127;BME280;57491;42.694;23.314;2024-03-22T10:17:14;95307.16;;;23.19;20.50
70127;BME280;57491;42.694;23.314;2024-03-22T10:19:41;95299.91;;;23.09;20.13
70127;BME280;57491;42.694;23.314;2024-03-22T10:22:08;95302.09;;;22.90;20.11
70127;BME280;57491;42.694;23.314;2024-03-22T10:24:36;95290.06;;;22.78;19.90
70127;BME280;57491;42.694;23.314;2024-03-22T10:27:04;95300.59;;;23.26;19.61
70127;BME280;57491;42.694;23.314;2024-03-22T10:29:30;95290.06;;;24.10;19.06
70127;BME280;57491;42.694;23.314;2024-03-22T10:31:59;95280.28;;;24.16;19.00
70127;BME280;57491;42.694;23.314;2024-03-22T10:34:27;95277.69;;;23.47;18.92
70127;BME280;57491;42.694;23.314;2024-03-22T10:36:56;95287.66;;;23.03;19.59
70127;BME280;57491;42.694;23.314;2024-03-22T10:39:22;95274.94;;;22.35;20.11
70127;BME280;57491;42.694;23.314;2024-03-22T10:41:51;95256.78;;;22.00;20.36
70127;BME280;57491;42.694;23.314;2024-03-22T10:44:19;95277.53;;;22.08;20.63
70127;BME280;57491;42.694;23.314;2024-03-22T10:46:48;95276.66;;;22.02;20.85
70127;BME280;57491;42.694;23.314;2024-03-22T10:49:16;95265.75;;;21.99;20.36
70127;BME280;57491;42.694;23.314;2024-03-22T10:51:47;95260.84;;;22.29;20.37
70127;BME280;57491;42.694;23.314;2024-03-22T10:54:18;95258.75;;;23.06;19.88
70127;BME280;57491;42.694;23.314;2024-03-22T10:56:48;95253.97;;;22.28;20.27
70127;BME280;57491;42.694;23.314;2024-03-22T10:59:18;95249.13;;;22.95;19.72
70127;BME280;57491;42.694;23.314;2024-03-22T11:01:46;95239.66;;;24.20;18.13
70127;BME280;57491;42.694;23.314;2024-03-22T11:04:15;95248.44;;;25.64;17.32
70127;BME280;57491;42.694;23.314;2024-03-22T11:06:47;95245.38;;;26.26;17.31
70127;BME280;57491;42.694;23.314;2024-03-22T11:09:18;95240.31;;;26.14;16.65
70127;BME280;57491;42.694;23.314;2024-03-22T11:11:47;95232.47;;;25.44;16.91
70127;BME280;57491;42.694;23.314;2024-03-22T11:14:13;95229.81;;;25.28;17.59
70127;BME280;57491;42.694;23.314;2024-03-22T11:16:44;95227.13;;;24.98;17.71
70127;BME280;57491;42.694;23.314;2024-03-22T11:19:11;95231.91;;;25.52;17.51
70127;BME280;57491;42.694;23.314;2024-03-22T11:21:38;95223.56;;;26.09;16.85
70127;BME280;57491;42.694;23.314;2024-03-22T11:24:05;95216.63;;;26.72;16.52
70127;BME280;57491;42.694;23.314;2024-03-22T11:26:33;95202.50;;;27.11;16.20
70127;BME280;57491;42.694;23.314;2024-03-22T11:28:59;95226.78;;;26.01;16.54
70127;BME280;57491;42.694;23.314;2024-03-22T11:31:27;95224.31;;;26.19;16.41
70127;BME280;57491;42.694;23.314;2024-03-22T11:33:55;95207.19;;;26.85;16.23
70127;BME280;57491;42.694;23.314;2024-03-22T11:36:23;95217.06;;;26.89;15.70
70127;BME280;57491;42.694;23.314;2024-03-22T11:38:50;95225.94;;;26.21;16.89
70127;BME280;57491;42.694;23.314;2024-03-22T11:41:21;95229.81;;;26.43;16.43
70127;BME280;57491;42.694;23.314;2024-03-22T11:43:49;95205.00;;;25.84;16.25
70127;BME280;57491;42.694;23.314;2024-03-22T11:46:18;95212.47;;;25.51;16.79
70127;BME280;57491;42.694;23.314;2024-03-22T11:48:44;95207.94;;;24.71;17.77
70127;BME280;57491;42.694;23.314;2024-03-22T11:51:13;95197.75;;;25.94;17.47
70127;BME280;57491;42.694;23.314;2024-03-22T11:53:48;95199.69;;;27.26;16.25
70127;BME280;57491;42.694;23.314;2024-03-22T11:56:18;95193.28;;;28.74;14.77
70127;BME280;57491;42.694;23.314;2024-03-22T11:58:46;95194.00;;;28.99;14.71
70127;BME280;57491;42.694;23.314;2024-03-22T12:01:14;95186.94;;;29.21;14.10
70127;BME280;57491;42.694;23.314;2024-03-22T12:03:43;95179.72;;;29.82;13.46
70127;BME280;57491;42.694;23.314;2024-03-22T12:06:10;95169.16;;;29.44;13.50
70127;BME280;57491;42.694;23.314;2024-03-22T12:08:38;95178.50;;;27.68;14.83
70127;BME280;57491;42.694;23.314;2024-03-22T12:11:07;95163.44;;;27.77;14.77
70127;BME280;57491;42.694;23.314;2024-03-22T12:13:36;95168.00;;;28.43;14.13
70127;BME280;57491;42.694;23.314;2024-03-22T12:16:04;95172.16;;;28.12;14.35
70127;BME280;57491;42.694;23.314;2024-03-22T12:18:30;95164.00;;;28.22;13.88
70127;BME280;57491;42.694;23.314;2024-03-22T12:20:57;95164.09;;;29.43;13.38
70127;BME280;57491;42.694;23.314;2024-03-22T12:23:24;95170.56;;;30.65;12.72
70127;BME280;57491;42.694;23.314;2024-03-22T12:25:52;95172.88;;;30.93;12.06
70127;BME280;57491;42.694;23.314;2024-03-22T12:28:20;95173.19;;;32.38;11.16
70127;BME280;57491;42.694;23.314;2024-03-22T12:30:48;95162.25;;;32.51;11.60
70127;BME280;57491;42.694;23.314;2024-03-22T12:33:16;95155.31;;;33.02;12.13
70127;BME280;57491;42.694;23.314;2024-03-22T12:35:44;95156.13;;;32.68;11.94
70127;BME280;57491;42.694;23.314;2024-03-22T12:38:10;95144.47;;;31.45;12.73
70127;BME280;57491;42.694;23.314;2024-03-22T12:40:40;95143.38;;;31.47;12.46
70127;BME280;57491;42.694;23.314;2024-03-22T12:43:10;95135.00;;;32.27;12.15
70127;BME280;57491;42.694;23.314;2024-03-22T12:45:38;95140.75;;;32.60;11.09
70127;BME280;57491;42.694;23.314;2024-03-22T12:48:05;95139.06;;;30.92;12.17
70127;BME280;57491;42.694;23.314;2024-03-22T12:50:33;95135.56;;;29.65;12.61
70127;BME280;57491;42.694;23.314;2024-03-22T12:53:01;95136.94;;;28.85;13.41
70127;BME280;57491;42.694;23.314;2024-03-22T12:55:29;95125.22;;;28.43;13.88
70127;BME280;57491;42.694;23.314;2024-03-22T12:57:57;95129.78;;;28.00;14.12